sensor_id;sensor_type;location;lat;lon;timestamp;P1;durP1;ratioP1;P2;durP2;ratioP2
8889;SDS011;4481;43.406;24.454;2022-09-12T00:00:42;1.50;;;1.40;;
8889;SDS011;4481;43.406;24.454;2022-09-12T00:03:09;1.70;;;1.60;;
8889;SDS011;4481;43.406;24.454;2022-09-12T00:05:39;2.13;;;1.60;;
8889;SDS011;4481;43.406;24.454;2022-09-12T00:08:05;1.83;;;1.70;;
8889;SDS011;4481;43.406;24.454;2022-09-12T00:10:32;4.67;;;2.10;;
8889;SDS011;4481;43.406;24.454;2022-09-12T00:13:02;3.47;;;2.13;;
8889;SDS011;4481;43.406;24.454;2022-09-12T00:15:28;2.27;;;1.57;;
8889;SDS011;4481;43.406;24.454;2022-09-12T00:17:54;2.70;;;1.80;;
8889;SDS011;4481;43.406;24.454;2022-09-12T00:20:20;2.50;;;1.77;;
8889;SDS011;4481;43.406;24.454;2022-09-12T00:22:46;4.10;;;1.70;;
8889;SDS011;4481;43.406;24.454;2022-09-12T00:25:12;3.57;;;1.80;;
8889;SDS011;4481;43.406;24.454;2022-09-12T00:27:39;3.83;;;1.90;;
8889;SDS011;4481;43.406;24.454;2022-09-12T00:30:06;5.20;;;1.93;;
8889;SDS011;4481;43.406;24.454;2022-09-12T00:32:33;1.70;;;1.60;;
8889;SDS011;4481;43.406;24.454;2022-09-12T00:34:59;2.33;;;1.97;;
8889;SDS011;4481;43.406;24.454;2022-09-12T00:37:26;4.10;;;1.27;;
8889;SDS011;4481;43.406;24.454;2022-09-12T00:39:53;1.73;;;1.63;;
8889;SDS011;4481;43.406;24.454;2022-09-12T00:42:19;3.23;;;1.60;;
8889;SDS011;4481;43.406;24.454;2022-09-12T00:44:47;2.00;;;1.60;;
8889;SDS011;4481;43.406;24.454;2022-09-12T00:47:22;1.70;;;1.60;;
8889;SDS011;4481;43.406;24.454;2022-09-12T00:49:53;4.03;;;1.60;;
8889;SDS011;4481;43.406;24.454;2022-09-12T00:52:24;2.57;;;1.70;;
8889;SDS011;4481;43.406;24.454;2022-09-12T00:54:54;1.83;;;1.60;;
8889;SDS011;4481;43.406;24.454;2022-09-12T00:57:25;1.73;;;1.63;;
8889;SDS011;4481;43.406;24.454;2022-09-12T00:59:56;2.27;;;1.77;;
8889;SDS011;4481;43.406;24.454;2022-09-12T01:02:27;2.50;;;1.70;;
8889;SDS011;4481;43.406;24.454;2022-09-12T01:04:53;2.60;;;1.93;;
8889;SDS011;4481;43.406;24.454;2022-09-12T01:07:19;2.90;;;1.60;;
8889;SDS011;4481;43.406;24.454;2022-09-12T01:09:46;2.03;;;1.80;;
8889;SDS011;4481;43.406;24.454;2022-09-12T01:12:13;2.57;;;1.57;;
8889;SDS011;4481;43.406;24.454;2022-09-12T01:14:40;3.40;;;1.63;;
8889;SDS011;4481;43.406;24.454;2022-09-12T01:17:06;2.97;;;1.90;;
8889;SDS011;4481;43.406;24.454;2022-09-12T01:19:42;1.80;;;1.70;;
8889;SDS011;4481;43.406;24.454;2022-09-12T01:22:50;1.80;;;1.63;;
8889;SDS011;4481;43.406;24.454;2022-09-12T01:25:42;2.67;;;1.80;;
8889;SDS011;4481;43.406;24.454;2022-09-12T01:28:36;2.93;;;1.83;;
8889;SDS011;4481;43.406;24.454;2022-09-12T01:31:27;4.20;;;1.80;;
8889;SDS011;4481;43.406;24.454;2022-09-12T01:34:01;1.70;;;1.60;;
8889;SDS011;4481;43.406;24.454;2022-09-12T01:36:42;6.23;;;1.60;;
8889;SDS011;4481;43.406;24.454;2022-09-12T01:39:20;3.60;;;1.60;;
8889;SDS011;4481;43.406;24.454;2022-09-12T01:41:58;1.90;;;1.50;;
8889;SDS011;4481;43.406;24.454;2022-09-12T01:44:36;3.43;;;1.77;;
8889;SDS011;4481;43.406;24.454;2022-09-12T01:47:11;2.70;;;1.33;;
8889;SDS011;4481;43.406;24.454;2022-09-12T01:49:45;1.67;;;1.57;;
8889;SDS011;4481;43.406;24.454;2022-09-12T01:52:21;1.60;;;1.50;;
8889;SDS011;4481;43.406;24.454;2022-09-12T01:54:51;2.97;;;1.70;;
8889;SDS011;4481;43.406;24.454;2022-09-12T01:57:22;2.33;;;1.70;;
8889;SDS011;4481;43.406;24.454;2022-09-12T01:59:53;2.60;;;1.57;;
8889;SDS011;4481;43.406;24.454;2022-09-12T02:02:26;1.63;;;1.53;;
8889;SDS011;4481;43.406;24.454;2022-09-12T02:04:57;1.97;;;1.60;;
8889;SDS011;4481;43.406;24.454;2022-09-12T02:07:30;2.00;;;1.80;;
8889;SDS011;4481;43.406;24.454;2022-09-12T02:10:02;2.23;;;1.90;;
8889;SDS011;4481;43.406;24.454;2022-09-12T02:12:34;4.07;;;1.60;;
8889;SDS011;4481;43.406;24.454;2022-09-12T02:15:06;1.87;;;1.67;;
8889;SDS011;4481;43.406;24.454;2022-09-12T02:17:35;3.10;;;1.70;;
8889;SDS011;4481;43.406;24.454;2022-09-12T02:20:08;1.77;;;1.67;;
8889;SDS011;4481;43.406;24.454;2022-09-12T02:22:38;2.10;;;1.80;;
8889;SDS011;4481;43.406;24.454;2022-09-12T02:25:07;2.67;;;1.73;;
8889;SDS011;4481;43.406;24.454;2022-09-12T02:27:36;1.73;;;1.50;;
8889;SDS011;4481;43.406;24.454;2022-09-12T02:30:06;3.47;;;1.50;;
8889;SDS011;4481;43.406;24.454;2022-09-12T02:32:34;3.13;;;1.90;;
8889;SDS011;4481;43.406;24.454;2022-09-12T02:35:04;3.70;;;1.90;;
8889;SDS011;4481;43.406;24.454;2022-09-12T02:37:43;1.80;;;1.47;;
8889;SDS011;4481;43.406;24.454;2022-09-12T02:40:20;1.70;;;1.60;;
8889;SDS011;4481;43.406;24.454;2022-09-12T02:42:47;2.37;;;1.90;;
8889;SDS011;4481;43.406;24.454;2022-09-12T02:45:13;1.67;;;1.57;;
8889;SDS011;4481;43.406;24.454;2022-09-12T02:47:42;2.37;;;1.67;;
8889;SDS011;4481;43.406;24.454;2022-09-12T02:50:12;1.53;;;1.43;;
8889;SDS011;4481;43.406;24.454;2022-09-12T02:52:39;2.80;;;1.63;;
8889;SDS011;4481;43.406;24.454;2022-09-12T02:55:06;2.10;;;1.60;;
8889;SDS011;4481;43.406;24.454;2022-09-12T02:57:35;1.63;;;1.30;;
8889;SDS011;4481;43.406;24.454;2022-09-12T03:00:02;1.40;;;1.30;;
8889;SDS011;4481;43.406;24.454;2022-09-12T03:02:33;1.53;;;1.43;;
8889;SDS011;4481;43.406;24.454;2022-09-12T03:07:58;3.43;;;1.53;;
8889;SDS011;4481;43.406;24.454;2022-09-12T03:10:50;1.77;;;1.50;;
8889;SDS011;4481;43.406;24.454;2022-09-12T03:13:32;2.63;;;1.33;;
8889;SDS011;4481;43.406;24.454;2022-09-12T03:16:09;1.77;;;1.40;;
8889;SDS011;4481;43.406;24.454;2022-09-12T03:18:42;1.70;;;1.20;;
8889;SDS011;4481;43.406;24.454;2022-09-12T03:21:18;1.40;;;1.30;;
8889;SDS011;4481;43.406;24.454;2022-09-12T03:23:55;1.30;;;1.20;;
8889;SDS011;4481;43.406;24.454;2022-09-12T03:26:39;2.10;;;1.37;;
8889;SDS011;4481;43.406;24.454;2022-09-12T03:29:09;2.07;;;1.70;;
8889;SDS011;4481;43.406;24.454;2022-09-12T03:31:44;1.83;;;1.27;;
8889;SDS011;4481;43.406;24.454;2022-09-12T03:34:14;1.30;;;1.20;;
8889;SDS011;4481;43.406;24.454;2022-09-12T03:36:40;1.47;;;1.37;;
8889;SDS011;4481;43.406;24.454;2022-09-12T03:39:07;1.40;;;1.30;;
8889;SDS011;4481;43.406;24.454;2022-09-12T03:41:33;1.57;;;1.33;;
8889;SDS011;4481;43.406;24.454;2022-09-12T03:43:59;2.57;;;1.20;;
8889;SDS011;4481;43.406;24.454;2022-09-12T03:46:25;1.50;;;1.40;;
8889;SDS011;4481;43.406;24.454;2022-09-12T03:48:51;1.30;;;1.00;;
8889;SDS011;4481;43.406;24.454;2022-09-12T03:51:17;1.40;;;1.30;;
8889;SDS011;4481;43.406;24.454;2022-09-12T03:53:44;1.60;;;1.50;;
8889;SDS011;4481;43.406;24.454;2022-09-12T03:56:11;1.63;;;1.50;;
8889;SDS011;4481;43.406;24.454;2022-09-12T03:58:38;6.40;;;1.53;;
8889;SDS011;4481;43.406;24.454;2022-09-12T04:01:06;3.13;;;1.60;;
8889;SDS011;4481;43.406;24.454;2022-09-12T04:03:36;1.70;;;1.60;;
8889;SDS011;4481;43.406;24.454;2022-09-12T04:06:02;2.10;;;1.70;;
8889;SDS011;4481;43.406;24.454;2022-09-12T04:08:29;1.60;;;1.50;;
8889;SDS011;4481;43.406;24.454;2022-09-12T04:11:01;1.90;;;1.70;;
8889;SDS011;4481;43.406;24.454;2022-09-12T04:13:28;1.70;;;1.60;;
8889;SDS011;4481;43.406;24.454;2022-09-12T04:15:54;4.50;;;1.67;;
8889;SDS011;4481;43.406;24.454;2022-09-12T04:18:21;3.60;;;2.03;;
8889;SDS011;4481;43.406;24.454;2022-09-12T04:20:47;1.80;;;1.53;;
8889;SDS011;4481;43.406;24.454;2022-09-12T04:23:14;4.23;;;1.90;;
8889;SDS011;4481;43.406;24.454;2022-09-12T04:25:40;4.70;;;1.60;;
8889;SDS011;4481;43.406;24.454;2022-09-12T04:28:07;1.90;;;1.70;;
8889;SDS011;4481;43.406;24.454;2022-09-12T04:30:33;3.57;;;1.73;;
8889;SDS011;4481;43.406;24.454;2022-09-12T04:32:59;3.50;;;1.70;;
8889;SDS011;4481;43.406;24.454;2022-09-12T04:35:25;2.37;;;1.40;;
8889;SDS011;4481;43.406;24.454;2022-09-12T04:37:52;2.13;;;1.53;;
8889;SDS011;4481;43.406;24.454;2022-09-12T04:40:18;1.80;;;1.50;;
8889;SDS011;4481;43.406;24.454;2022-09-12T04:42:44;1.63;;;1.53;;
8889;SDS011;4481;43.406;24.454;2022-09-12T04:45:11;2.27;;;1.70;;
8889;SDS011;4481;43.406;24.454;2022-09-12T04:47:37;1.77;;;1.67;;
8889;SDS011;4481;43.406;24.454;2022-09-12T04:50:04;1.80;;;1.70;;
8889;SDS011;4481;43.406;24.454;2022-09-12T04:52:31;4.50;;;2.83;;
8889;SDS011;4481;43.406;24.454;2022-09-12T04:54:57;3.30;;;2.63;;
8889;SDS011;4481;43.406;24.454;2022-09-12T04:57:23;2.90;;;2.20;;
8889;SDS011;4481;43.406;24.454;2022-09-12T04:59:50;2.90;;;1.93;;
8889;SDS011;4481;43.406;24.454;2022-09-12T05:02:16;4.53;;;2.40;;
8889;SDS011;4481;43.406;24.454;2022-09-12T05:04:43;10.40;;;3.30;;
8889;SDS011;4481;43.406;24.454;2022-09-12T05:07:10;48.50;;;4.60;;
8889;SDS011;4481;43.406;24.454;2022-09-12T05:09:37;10.30;;;2.17;;
8889;SDS011;4481;43.406;24.454;2022-09-12T05:12:04;5.93;;;2.03;;
8889;SDS011;4481;43.406;24.454;2022-09-12T05:14:31;12.73;;;2.27;;
8889;SDS011;4481;43.406;24.454;2022-09-12T05:16:58;6.97;;;2.03;;
8889;SDS011;4481;43.406;24.454;2022-09-12T05:19:26;9.17;;;2.63;;
8889;SDS011;4481;43.406;24.454;2022-09-12T05:21:53;13.53;;;3.23;;
8889;SDS011;4481;43.406;24.454;2022-09-12T05:24:19;19.50;;;5.90;;
8889;SDS011;4481;43.406;24.454;2022-09-12T05:26:45;5.50;;;3.13;;
8889;SDS011;4481;43.406;24.454;2022-09-12T05:29:12;2.93;;;2.57;;
8889;SDS011;4481;43.406;24.454;2022-09-12T05:31:38;13.17;;;2.87;;
8889;SDS011;4481;43.406;24.454;2022-09-12T05:34:05;10.03;;;2.70;;
8889;SDS011;4481;43.406;24.454;2022-09-12T05:36:32;3.57;;;2.20;;
8889;SDS011;4481;43.406;24.454;2022-09-12T05:38:58;6.00;;;2.30;;
8889;SDS011;4481;43.406;24.454;2022-09-12T05:41:26;2.47;;;1.80;;
8889;SDS011;4481;43.406;24.454;2022-09-12T05:43:55;2.57;;;1.80;;
8889;SDS011;4481;43.406;24.454;2022-09-12T05:46:23;3.63;;;2.30;;
8889;SDS011;4481;43.406;24.454;2022-09-12T05:48:51;22.27;;;4.03;;
8889;SDS011;4481;43.406;24.454;2022-09-12T05:51:19;14.77;;;3.80;;
8889;SDS011;4481;43.406;24.454;2022-09-12T05:53:48;17.70;;;3.23;;
8889;SDS011;4481;43.406;24.454;2022-09-12T05:56:17;32.97;;;4.70;;
8889;SDS011;4481;43.406;24.454;2022-09-12T05:58:45;10.47;;;2.87;;
8889;SDS011;4481;43.406;24.454;2022-09-12T06:01:13;16.23;;;3.40;;
8889;SDS011;4481;43.406;24.454;2022-09-12T06:03:41;21.50;;;3.53;;
8889;SDS011;4481;43.406;24.454;2022-09-12T06:06:08;10.60;;;2.67;;
8889;SDS011;4481;43.406;24.454;2022-09-12T06:08:38;6.10;;;2.00;;
8889;SDS011;4481;43.406;24.454;2022-09-12T06:11:06;19.73;;;3.03;;
8889;SDS011;4481;43.406;24.454;2022-09-12T06:13:34;12.07;;;2.70;;
8889;SDS011;4481;43.406;24.454;2022-09-12T06:16:03;7.53;;;2.37;;
8889;SDS011;4481;43.406;24.454;2022-09-12T06:18:30;21.23;;;3.27;;
8889;SDS011;4481;43.406;24.454;2022-09-12T06:20:57;10.37;;;3.50;;
8889;SDS011;4481;43.406;24.454;2022-09-12T06:23:27;11.43;;;3.07;;
8889;SDS011;4481;43.406;24.454;2022-09-12T06:25:53;2.93;;;1.93;;
8889;SDS011;4481;43.406;24.454;2022-09-12T06:28:20;5.37;;;1.80;;
8889;SDS011;4481;43.406;24.454;2022-09-12T06:30:46;12.67;;;2.00;;
8889;SDS011;4481;43.406;24.454;2022-09-12T06:33:13;7.67;;;2.13;;
8889;SDS011;4481;43.406;24.454;2022-09-12T06:35:39;1.90;;;1.70;;
8889;SDS011;4481;43.406;24.454;2022-09-12T06:38:05;5.03;;;2.27;;
8889;SDS011;4481;43.406;24.454;2022-09-12T06:40:32;14.70;;;3.10;;
8889;SDS011;4481;43.406;24.454;2022-09-12T06:42:58;8.13;;;2.43;;
8889;SDS011;4481;43.406;24.454;2022-09-12T06:45:25;3.30;;;2.60;;
8889;SDS011;4481;43.406;24.454;2022-09-12T06:47:51;29.30;;;5.13;;
8889;SDS011;4481;43.406;24.454;2022-09-12T06:50:19;22.70;;;3.40;;
8889;SDS011;4481;43.406;24.454;2022-09-12T06:52:47;22.57;;;3.40;;
8889;SDS011;4481;43.406;24.454;2022-09-12T06:55:14;13.27;;;3.30;;
8889;SDS011;4481;43.406;24.454;2022-09-12T06:57:40;5.87;;;2.73;;
8889;SDS011;4481;43.406;24.454;2022-09-12T07:00:06;12.60;;;3.60;;
8889;SDS011;4481;43.406;24.454;2022-09-12T07:02:35;8.47;;;2.97;;
8889;SDS011;4481;43.406;24.454;2022-09-12T07:05:01;5.43;;;2.93;;
8889;SDS011;4481;43.406;24.454;2022-09-12T07:07:28;19.10;;;4.03;;
8889;SDS011;4481;43.406;24.454;2022-09-12T07:09:58;24.50;;;5.33;;
8889;SDS011;4481;43.406;24.454;2022-09-12T07:12:24;6.93;;;2.93;;
8889;SDS011;4481;43.406;24.454;2022-09-12T07:14:52;5.60;;;2.93;;
8889;SDS011;4481;43.406;24.454;2022-09-12T07:17:18;7.70;;;3.30;;
8889;SDS011;4481;43.406;24.454;2022-09-12T07:19:45;12.43;;;2.40;;
8889;SDS011;4481;43.406;24.454;2022-09-12T07:22:12;2.67;;;2.10;;
8889;SDS011;4481;43.406;24.454;2022-09-12T07:24:38;15.80;;;3.77;;
8889;SDS011;4481;43.406;24.454;2022-09-12T07:27:05;6.93;;;2.47;;
8889;SDS011;4481;43.406;24.454;2022-09-12T07:29:31;8.43;;;3.10;;
8889;SDS011;4481;43.406;24.454;2022-09-12T07:31:57;11.63;;;3.17;;
8889;SDS011;4481;43.406;24.454;2022-09-12T07:34:25;12.27;;;2.90;;
8889;SDS011;4481;43.406;24.454;2022-09-12T07:36:52;31.70;;;2.90;;
8889;SDS011;4481;43.406;24.454;2022-09-12T07:39:18;3.07;;;1.90;;
8889;SDS011;4481;43.406;24.454;2022-09-12T07:41:44;41.97;;;4.13;;
8889;SDS011;4481;43.406;24.454;2022-09-12T07:44:10;38.97;;;4.37;;
8889;SDS011;4481;43.406;24.454;2022-09-12T07:46:37;9.60;;;2.53;;
8889;SDS011;4481;43.406;24.454;2022-09-12T07:49:04;113.73;;;7.93;;
8889;SDS011;4481;43.406;24.454;2022-09-12T07:51:30;103.33;;;7.50;;
8889;SDS011;4481;43.406;24.454;2022-09-12T07:53:57;35.57;;;4.33;;
8889;SDS011;4481;43.406;24.454;2022-09-12T07:56:24;17.67;;;2.60;;
8889;SDS011;4481;43.406;24.454;2022-09-12T07:58:53;17.57;;;2.50;;
8889;SDS011;4481;43.406;24.454;2022-09-12T08:01:20;16.73;;;2.67;;
8889;SDS011;4481;43.406;24.454;2022-09-12T08:03:47;7.43;;;2.53;;
8889;SDS011;4481;43.406;24.454;2022-09-12T08:06:18;13.20;;;2.40;;
8889;SDS011;4481;43.406;24.454;2022-09-12T08:08:45;3.40;;;2.10;;
8889;SDS011;4481;43.406;24.454;2022-09-12T08:11:13;6.77;;;2.03;;
8889;SDS011;4481;43.406;24.454;2022-09-12T08:13:41;5.93;;;2.20;;
8889;SDS011;4481;43.406;24.454;2022-09-12T08:16:09;11.60;;;3.10;;
8889;SDS011;4481;43.406;24.454;2022-09-12T08:18:37;7.43;;;2.07;;
8889;SDS011;4481;43.406;24.454;2022-09-12T08:21:05;4.47;;;2.13;;
8889;SDS011;4481;43.406;24.454;2022-09-12T08:23:33;18.10;;;2.77;;
8889;SDS011;4481;43.406;24.454;2022-09-12T08:26:00;6.67;;;1.90;;
8889;SDS011;4481;43.406;24.454;2022-09-12T08:28:28;2.60;;;1.93;;
8889;SDS011;4481;43.406;24.454;2022-09-12T08:30:58;5.43;;;1.93;;
8889;SDS011;4481;43.406;24.454;2022-09-12T08:33:25;3.40;;;2.00;;
8889;SDS011;4481;43.406;24.454;2022-09-12T08:36:01;2.37;;;2.17;;
8889;SDS011;4481;43.406;24.454;2022-09-12T08:38:28;4.33;;;2.00;;
8889;SDS011;4481;43.406;24.454;2022-09-12T08:40:57;7.33;;;2.73;;
8889;SDS011;4481;43.406;24.454;2022-09-12T08:43:31;3.00;;;1.83;;
8889;SDS011;4481;43.406;24.454;2022-09-12T08:46:09;11.77;;;2.77;;
8889;SDS011;4481;43.406;24.454;2022-09-12T08:48:41;2.20;;;1.80;;
8889;SDS011;4481;43.406;24.454;2022-09-12T08:51:10;2.10;;;1.90;;
8889;SDS011;4481;43.406;24.454;2022-09-12T08:53:40;17.77;;;2.63;;
8889;SDS011;4481;43.406;24.454;2022-09-12T08:56:08;7.50;;;2.83;;
8889;SDS011;4481;43.406;24.454;2022-09-12T08:58:38;3.93;;;2.03;;
8889;SDS011;4481;43.406;24.454;2022-09-12T09:01:06;12.23;;;2.40;;
8889;SDS011;4481;43.406;24.454;2022-09-12T09:06:55;2.80;;;2.60;;
8889;SDS011;4481;43.406;24.454;2022-09-12T09:09:31;3.07;;;2.50;;
8889;SDS011;4481;43.406;24.454;2022-09-12T09:12:11;5.00;;;2.33;;
8889;SDS011;4481;43.406;24.454;2022-09-12T09:14:50;8.70;;;2.37;;
8889;SDS011;4481;43.406;24.454;2022-09-12T09:17:38;2.90;;;2.70;;
8889;SDS011;4481;43.406;24.454;2022-09-12T09:20:09;2.77;;;2.57;;
8889;SDS011;4481;43.406;24.454;2022-09-12T09:22:48;2.60;;;2.40;;
8889;SDS011;4481;43.406;24.454;2022-09-12T09:25:20;6.70;;;3.10;;
8889;SDS011;4481;43.406;24.454;2022-09-12T09:27:49;3.33;;;3.13;;
8889;SDS011;4481;43.406;24.454;2022-09-12T09:30:24;11.40;;;3.77;;
8889;SDS011;4481;43.406;24.454;2022-09-12T09:32:50;7.87;;;2.87;;
8889;SDS011;4481;43.406;24.454;2022-09-12T09:35:21;5.43;;;2.67;;
8889;SDS011;4481;43.406;24.454;2022-09-12T09:37:59;7.20;;;2.97;;
8889;SDS011;4481;43.406;24.454;2022-09-12T09:40:32;10.33;;;3.23;;
8889;SDS011;4481;43.406;24.454;2022-09-12T09:43:08;2.90;;;2.60;;
8889;SDS011;4481;43.406;24.454;2022-09-12T09:45:45;10.17;;;3.00;;
8889;SDS011;4481;43.406;24.454;2022-09-12T09:48:14;7.23;;;2.90;;
8889;SDS011;4481;43.406;24.454;2022-09-12T09:50:46;6.00;;;3.10;;
8889;SDS011;4481;43.406;24.454;2022-09-12T09:53:18;14.43;;;3.20;;
8889;SDS011;4481;43.406;24.454;2022-09-12T09:55:51;5.23;;;2.47;;
8889;SDS011;4481;43.406;24.454;2022-09-12T09:58:27;3.30;;;3.00;;
8889;SDS011;4481;43.406;24.454;2022-09-12T10:00:58;4.93;;;2.63;;
8889;SDS011;4481;43.406;24.454;2022-09-12T10:03:27;4.23;;;2.60;;
8889;SDS011;4481;43.406;24.454;2022-09-12T10:05:57;2.77;;;2.57;;
8889;SDS011;4481;43.406;24.454;2022-09-12T10:08:26;6.97;;;2.93;;
8889;SDS011;4481;43.406;24.454;2022-09-12T10:10:54;11.93;;;5.80;;
8889;SDS011;4481;43.406;24.454;2022-09-12T10:13:37;6.83;;;3.10;;
8889;SDS011;4481;43.406;24.454;2022-09-12T10:16:15;6.93;;;3.60;;
8889;SDS011;4481;43.406;24.454;2022-09-12T10:18:44;4.03;;;3.67;;
8889;SDS011;4481;43.406;24.454;2022-09-12T10:21:14;9.43;;;3.20;;
8889;SDS011;4481;43.406;24.454;2022-09-12T10:23:44;5.93;;;3.43;;
8889;SDS011;4481;43.406;24.454;2022-09-12T10:26:12;8.10;;;5.57;;
8889;SDS011;4481;43.406;24.454;2022-09-12T10:28:41;3.37;;;3.17;;
8889;SDS011;4481;43.406;24.454;2022-09-12T10:31:12;11.90;;;3.83;;
8889;SDS011;4481;43.406;24.454;2022-09-12T10:33:42;4.67;;;3.80;;
8889;SDS011;4481;43.406;24.454;2022-09-12T10:36:11;60.60;;;6.43;;
8889;SDS011;4481;43.406;24.454;2022-09-12T10:38:38;51.57;;;5.73;;
8889;SDS011;4481;43.406;24.454;2022-09-12T10:41:14;5.50;;;3.47;;
8889;SDS011;4481;43.406;24.454;2022-09-12T10:43:40;3.60;;;3.30;;
8889;SDS011;4481;43.406;24.454;2022-09-12T10:46:20;7.03;;;4.33;;
8889;SDS011;4481;43.406;24.454;2022-09-12T10:51:44;4.97;;;3.60;;
8889;SDS011;4481;43.406;24.454;2022-09-12T10:54:10;5.53;;;3.50;;
8889;SDS011;4481;43.406;24.454;2022-09-12T10:56:37;4.60;;;3.70;;
8889;SDS011;4481;43.406;24.454;2022-09-12T10:59:15;4.33;;;3.27;;
8889;SDS011;4481;43.406;24.454;2022-09-12T11:01:51;6.53;;;4.00;;
8889;SDS011;4481;43.406;24.454;2022-09-12T11:04:25;5.13;;;3.63;;
8889;SDS011;4481;43.406;24.454;2022-09-12T11:07:06;8.17;;;3.00;;
8889;SDS011;4481;43.406;24.454;2022-09-12T11:09:45;6.27;;;3.20;;
8889;SDS011;4481;43.406;24.454;2022-09-12T11:12:19;3.43;;;3.00;;
8889;SDS011;4481;43.406;24.454;2022-09-12T11:14:59;19.83;;;3.67;;
8889;SDS011;4481;43.406;24.454;2022-09-12T11:17:41;3.53;;;3.20;;
8889;SDS011;4481;43.406;24.454;2022-09-12T11:26:15;4.10;;;2.83;;
8889;SDS011;4481;43.406;24.454;2022-09-12T11:28:55;4.63;;;2.93;;
8889;SDS011;4481;43.406;24.454;2022-09-12T11:31:40;65.80;;;6.47;;
8889;SDS011;4481;43.406;24.454;2022-09-12T11:34:29;10.03;;;2.80;;
8889;SDS011;4481;43.406;24.454;2022-09-12T11:37:17;10.97;;;3.33;;
8889;SDS011;4481;43.406;24.454;2022-09-12T11:39:55;3.97;;;3.03;;
8889;SDS011;4481;43.406;24.454;2022-09-12T11:42:28;4.40;;;3.30;;
8889;SDS011;4481;43.406;24.454;2022-09-12T11:45:00;4.27;;;2.73;;
8889;SDS011;4481;43.406;24.454;2022-09-12T11:47:32;3.23;;;2.90;;
8889;SDS011;4481;43.406;24.454;2022-09-12T11:50:02;12.70;;;3.40;;
8889;SDS011;4481;43.406;24.454;2022-09-12T11:52:47;4.50;;;3.00;;
8889;SDS011;4481;43.406;24.454;2022-09-12T11:55:16;4.93;;;3.10;;
8889;SDS011;4481;43.406;24.454;2022-09-12T11:57:46;4.67;;;3.23;;
8889;SDS011;4481;43.406;24.454;2022-09-12T12:00:18;22.63;;;3.73;;
8889;SDS011;4481;43.406;24.454;2022-09-12T12:02:48;3.67;;;2.83;;
8889;SDS011;4481;43.406;24.454;2022-09-12T12:05:24;11.03;;;3.40;;
8889;SDS011;4481;43.406;24.454;2022-09-12T12:07:55;5.70;;;3.43;;
8889;SDS011;4481;43.406;24.454;2022-09-12T12:10:24;3.77;;;3.00;;
8889;SDS011;4481;43.406;24.454;2022-09-12T12:12:59;5.50;;;3.10;;
8889;SDS011;4481;43.406;24.454;2022-09-12T12:15:26;5.17;;;3.30;;
8889;SDS011;4481;43.406;24.454;2022-09-12T12:18:04;3.70;;;3.33;;
8889;SDS011;4481;43.406;24.454;2022-09-12T12:20:34;4.60;;;3.40;;
8889;SDS011;4481;43.406;24.454;2022-09-12T12:23:00;4.33;;;3.13;;
8889;SDS011;4481;43.406;24.454;2022-09-12T12:25:38;3.77;;;3.30;;
8889;SDS011;4481;43.406;24.454;2022-09-12T12:31:15;6.77;;;3.40;;
8889;SDS011;4481;43.406;24.454;2022-09-12T12:36:47;3.60;;;3.30;;
8889;SDS011;4481;43.406;24.454;2022-09-12T12:48:23;9.40;;;3.57;;
8889;SDS011;4481;43.406;24.454;2022-09-12T12:50:50;8.67;;;4.07;;
8889;SDS011;4481;43.406;24.454;2022-09-12T12:53:18;7.17;;;3.83;;
8889;SDS011;4481;43.406;24.454;2022-09-12T12:55:48;9.27;;;4.03;;
8889;SDS011;4481;43.406;24.454;2022-09-12T13:01:03;21.90;;;5.53;;
8889;SDS011;4481;43.406;24.454;2022-09-12T13:03:36;5.60;;;4.30;;
8889;SDS011;4481;43.406;24.454;2022-09-12T13:06:06;11.17;;;5.00;;
8889;SDS011;4481;43.406;24.454;2022-09-12T13:08:45;6.33;;;4.20;;
8889;SDS011;4481;43.406;24.454;2022-09-12T13:11:28;13.03;;;5.07;;
8889;SDS011;4481;43.406;24.454;2022-09-12T13:13:57;8.13;;;3.30;;
8889;SDS011;4481;43.406;24.454;2022-09-12T13:16:28;21.97;;;4.07;;
8889;SDS011;4481;43.406;24.454;2022-09-12T13:18:56;6.23;;;3.07;;
8889;SDS011;4481;43.406;24.454;2022-09-12T13:21:28;6.33;;;3.50;;
8889;SDS011;4481;43.406;24.454;2022-09-12T13:23:59;9.50;;;3.50;;
8889;SDS011;4481;43.406;24.454;2022-09-12T13:26:27;24.93;;;3.73;;
8889;SDS011;4481;43.406;24.454;2022-09-12T13:29:08;12.93;;;4.50;;
8889;SDS011;4481;43.406;24.454;2022-09-12T13:31:40;9.23;;;3.80;;
8889;SDS011;4481;43.406;24.454;2022-09-12T13:34:07;10.37;;;3.67;;
8889;SDS011;4481;43.406;24.454;2022-09-12T13:36:47;10.23;;;3.53;;
8889;SDS011;4481;43.406;24.454;2022-09-12T13:39:24;7.20;;;2.90;;
8889;SDS011;4481;43.406;24.454;2022-09-12T13:42:04;6.80;;;2.50;;
8889;SDS011;4481;43.406;24.454;2022-09-12T13:44:53;5.60;;;2.30;;
8889;SDS011;4481;43.406;24.454;2022-09-12T13:47:24;10.70;;;2.97;;
8889;SDS011;4481;43.406;24.454;2022-09-12T13:49:55;3.10;;;2.40;;
8889;SDS011;4481;43.406;24.454;2022-09-12T13:52:23;3.33;;;2.57;;
8889;SDS011;4481;43.406;24.454;2022-09-12T13:54:53;2.53;;;2.33;;
8889;SDS011;4481;43.406;24.454;2022-09-12T13:57:26;8.33;;;2.30;;
8889;SDS011;4481;43.406;24.454;2022-09-12T13:59:54;4.50;;;2.23;;
8889;SDS011;4481;43.406;24.454;2022-09-12T14:02:23;9.10;;;3.03;;
8889;SDS011;4481;43.406;24.454;2022-09-12T14:04:52;3.30;;;3.00;;
8889;SDS011;4481;43.406;24.454;2022-09-12T14:07:38;2.83;;;2.27;;
8889;SDS011;4481;43.406;24.454;2022-09-12T14:10:19;9.07;;;2.47;;
8889;SDS011;4481;43.406;24.454;2022-09-12T14:12:48;9.83;;;3.63;;
8889;SDS011;4481;43.406;24.454;2022-09-12T14:15:16;3.67;;;2.70;;
8889;SDS011;4481;43.406;24.454;2022-09-12T14:17:47;9.70;;;2.33;;
8889;SDS011;4481;43.406;24.454;2022-09-12T14:20:16;6.00;;;2.70;;
8889;SDS011;4481;43.406;24.454;2022-09-12T14:22:44;3.47;;;2.33;;
8889;SDS011;4481;43.406;24.454;2022-09-12T14:25:13;3.53;;;2.57;;
8889;SDS011;4481;43.406;24.454;2022-09-12T14:27:41;3.57;;;3.03;;
8889;SDS011;4481;43.406;24.454;2022-09-12T14:30:18;5.40;;;2.93;;
8889;SDS011;4481;43.406;24.454;2022-09-12T14:33:00;12.23;;;4.13;;
8889;SDS011;4481;43.406;24.454;2022-09-12T14:35:28;9.70;;;3.37;;
8889;SDS011;4481;43.406;24.454;2022-09-12T14:37:54;5.80;;;3.10;;
8889;SDS011;4481;43.406;24.454;2022-09-12T14:40:21;4.73;;;3.60;;
8889;SDS011;4481;43.406;24.454;2022-09-12T14:42:49;4.20;;;3.80;;
8889;SDS011;4481;43.406;24.454;2022-09-12T14:45:21;5.20;;;4.03;;
8889;SDS011;4481;43.406;24.454;2022-09-12T14:47:50;9.43;;;4.63;;
8889;SDS011;4481;43.406;24.454;2022-09-12T14:50:17;31.77;;;5.13;;
8889;SDS011;4481;43.406;24.454;2022-09-12T14:52:46;5.03;;;3.80;;
8889;SDS011;4481;43.406;24.454;2022-09-12T14:55:27;5.77;;;3.70;;
8889;SDS011;4481;43.406;24.454;2022-09-12T14:58:14;6.33;;;3.67;;
8889;SDS011;4481;43.406;24.454;2022-09-12T15:03:48;8.67;;;3.83;;
8889;SDS011;4481;43.406;24.454;2022-09-12T15:06:19;4.93;;;4.43;;
8889;SDS011;4481;43.406;24.454;2022-09-12T15:08:47;4.43;;;3.80;;
8889;SDS011;4481;43.406;24.454;2022-09-12T15:11:13;4.73;;;3.83;;
8889;SDS011;4481;43.406;24.454;2022-09-12T15:13:40;20.63;;;5.57;;
8889;SDS011;4481;43.406;24.454;2022-09-12T15:16:08;7.30;;;4.40;;
8889;SDS011;4481;43.406;24.454;2022-09-12T15:18:35;7.60;;;3.87;;
8889;SDS011;4481;43.406;24.454;2022-09-12T15:21:02;5.83;;;4.13;;
8889;SDS011;4481;43.406;24.454;2022-09-12T15:23:31;7.27;;;4.10;;
8889;SDS011;4481;43.406;24.454;2022-09-12T15:26:02;4.63;;;3.90;;
8889;SDS011;4481;43.406;24.454;2022-09-12T15:28:29;6.77;;;4.27;;
8889;SDS011;4481;43.406;24.454;2022-09-12T15:30:59;5.67;;;3.87;;
8889;SDS011;4481;43.406;24.454;2022-09-12T15:33:30;11.90;;;3.93;;
8889;SDS011;4481;43.406;24.454;2022-09-12T15:35:56;4.00;;;3.60;;
8889;SDS011;4481;43.406;24.454;2022-09-12T15:38:22;9.77;;;4.43;;
8889;SDS011;4481;43.406;24.454;2022-09-12T15:40:48;5.93;;;4.50;;
8889;SDS011;4481;43.406;24.454;2022-09-12T15:43:17;11.47;;;6.20;;
8889;SDS011;4481;43.406;24.454;2022-09-12T15:45:43;11.63;;;8.50;;
8889;SDS011;4481;43.406;24.454;2022-09-12T15:48:12;7.73;;;4.57;;
8889;SDS011;4481;43.406;24.454;2022-09-12T15:50:38;6.60;;;3.90;;
8889;SDS011;4481;43.406;24.454;2022-09-12T15:53:05;4.63;;;4.00;;